sensor_id;sensor_type;location;lat;lon;timestamp;P1;durP1;ratioP1;P2;durP2;ratioP2
20611;SDS011;10465;42.686;23.364;2023-02-21T00:00:52;10.52;;;7.05;;
20611;SDS011;10465;42.686;23.364;2023-02-21T00:03:36;11.82;;;6.90;;
20611;SDS011;10465;42.686;23.364;2023-02-21T00:06:20;11.98;;;6.88;;
20611;SDS011;10465;42.686;23.364;2023-02-21T00:09:04;14.73;;;7.00;;
20611;SDS011;10465;42.686;23.364;2023-02-21T00:11:48;13.02;;;6.90;;
20611;SDS011;10465;42.686;23.364;2023-02-21T00:14:32;14.52;;;7.70;;
20611;SDS011;10465;42.686;23.364;2023-02-21T00:17:16;9.38;;;6.22;;
20611;SDS011;10465;42.686;23.364;2023-02-21T00:20:00;13.07;;;7.38;;
20611;SDS011;10465;42.686;23.364;2023-02-21T00:22:45;13.27;;;7.30;;
20611;SDS011;10465;42.686;23.364;2023-02-21T00:25:28;13.50;;;7.38;;
20611;SDS011;10465;42.686;23.364;2023-02-21T00:28:12;11.38;;;7.40;;
20611;SDS011;10465;42.686;23.364;2023-02-21T00:30:56;12.13;;;7.53;;
20611;SDS011;10465;42.686;23.364;2023-02-21T00:33:40;10.93;;;6.70;;
20611;SDS011;10465;42.686;23.364;2023-02-21T00:36:24;12.80;;;7.32;;
20611;SDS011;10465;42.686;23.364;2023-02-21T00:39:08;12.18;;;6.82;;
20611;SDS011;10465;42.686;23.364;2023-02-21T00:41:52;15.80;;;7.30;;
20611;SDS011;10465;42.686;23.364;2023-02-21T00:44:36;10.52;;;6.60;;
20611;SDS011;10465;42.686;23.364;2023-02-21T00:47:20;11.77;;;6.72;;
20611;SDS011;10465;42.686;23.364;2023-02-21T00:50:04;13.68;;;7.28;;
20611;SDS011;10465;42.686;23.364;2023-02-21T00:52:48;9.90;;;6.38;;
20611;SDS011;10465;42.686;23.364;2023-02-21T00:55:33;10.85;;;7.05;;
20611;SDS011;10465;42.686;23.364;2023-02-21T00:58:19;12.85;;;7.07;;
20611;SDS011;10465;42.686;23.364;2023-02-21T01:01:04;9.80;;;6.70;;
20611;SDS011;10465;42.686;23.364;2023-02-21T01:03:48;14.70;;;7.00;;
20611;SDS011;10465;42.686;23.364;2023-02-21T01:06:32;11.88;;;6.57;;
20611;SDS011;10465;42.686;23.364;2023-02-21T01:09:16;11.90;;;7.32;;
20611;SDS011;10465;42.686;23.364;2023-02-21T01:12:00;11.55;;;6.95;;
20611;SDS011;10465;42.686;23.364;2023-02-21T01:14:44;12.15;;;7.18;;
20611;SDS011;10465;42.686;23.364;2023-02-21T01:17:28;15.05;;;8.35;;
20611;SDS011;10465;42.686;23.364;2023-02-21T01:20:12;11.77;;;7.85;;
20611;SDS011;10465;42.686;23.364;2023-02-21T01:22:56;12.60;;;7.50;;
20611;SDS011;10465;42.686;23.364;2023-02-21T01:25:40;13.73;;;7.20;;
20611;SDS011;10465;42.686;23.364;2023-02-21T01:28:24;12.85;;;7.25;;
20611;SDS011;10465;42.686;23.364;2023-02-21T01:31:08;11.70;;;7.30;;
20611;SDS011;10465;42.686;23.364;2023-02-21T01:33:52;11.32;;;6.53;;
20611;SDS011;10465;42.686;23.364;2023-02-21T01:36:39;10.93;;;6.20;;
20611;SDS011;10465;42.686;23.364;2023-02-21T01:39:24;10.25;;;5.95;;
20611;SDS011;10465;42.686;23.364;2023-02-21T01:42:08;13.05;;;8.10;;
20611;SDS011;10465;42.686;23.364;2023-02-21T01:48:06;10.10;;;6.40;;
20611;SDS011;10465;42.686;23.364;2023-02-21T01:50:52;11.93;;;5.93;;
20611;SDS011;10465;42.686;23.364;2023-02-21T01:53:37;11.85;;;5.53;;
20611;SDS011;10465;42.686;23.364;2023-02-21T01:56:21;10.02;;;5.43;;
20611;SDS011;10465;42.686;23.364;2023-02-21T01:59:05;14.25;;;6.10;;
20611;SDS011;10465;42.686;23.364;2023-02-21T02:04:39;9.00;;;6.32;;
20611;SDS011;10465;42.686;23.364;2023-02-21T02:07:24;8.35;;;6.20;;
20611;SDS011;10465;42.686;23.364;2023-02-21T02:10:08;9.25;;;4.70;;
20611;SDS011;10465;42.686;23.364;2023-02-21T02:27:13;6.45;;;4.53;;
20611;SDS011;10465;42.686;23.364;2023-02-21T02:37:57;8.98;;;4.82;;
20611;SDS011;10465;42.686;23.364;2023-02-21T02:40:35;7.97;;;5.45;;
20611;SDS011;10465;42.686;23.364;2023-02-21T02:43:37;7.82;;;4.80;;
20611;SDS011;10465;42.686;23.364;2023-02-21T02:46:28;6.60;;;3.85;;
20611;SDS011;10465;42.686;23.364;2023-02-21T02:51:33;10.27;;;4.85;;
20611;SDS011;10465;42.686;23.364;2023-02-21T02:53:59;6.03;;;4.13;;
20611;SDS011;10465;42.686;23.364;2023-02-21T02:56:25;7.13;;;4.53;;
20611;SDS011;10465;42.686;23.364;2023-02-21T02:58:53;7.88;;;4.38;;
20611;SDS011;10465;42.686;23.364;2023-02-21T03:07:00;7.70;;;4.18;;
20611;SDS011;10465;42.686;23.364;2023-02-21T03:17:22;7.88;;;4.88;;
20611;SDS011;10465;42.686;23.364;2023-02-21T03:19:51;6.80;;;4.68;;
20611;SDS011;10465;42.686;23.364;2023-02-21T03:22:20;6.45;;;4.75;;
20611;SDS011;10465;42.686;23.364;2023-02-21T03:24:50;5.78;;;3.80;;
20611;SDS011;10465;42.686;23.364;2023-02-21T03:27:18;7.25;;;4.30;;
20611;SDS011;10465;42.686;23.364;2023-02-21T03:29:45;8.68;;;3.88;;
20611;SDS011;10465;42.686;23.364;2023-02-21T03:34:44;8.38;;;4.07;;
20611;SDS011;10465;42.686;23.364;2023-02-21T03:37:17;6.35;;;3.95;;
20611;SDS011;10465;42.686;23.364;2023-02-21T03:39:45;5.97;;;3.88;;
20611;SDS011;10465;42.686;23.364;2023-02-21T03:42:10;6.60;;;4.10;;
20611;SDS011;10465;42.686;23.364;2023-02-21T03:44:36;5.03;;;3.78;;
20611;SDS011;10465;42.686;23.364;2023-02-21T03:47:01;9.30;;;3.90;;
20611;SDS011;10465;42.686;23.364;2023-02-21T03:49:27;5.15;;;3.38;;
20611;SDS011;10465;42.686;23.364;2023-02-21T03:51:52;6.40;;;3.78;;
20611;SDS011;10465;42.686;23.364;2023-02-21T03:54:18;6.55;;;3.90;;
20611;SDS011;10465;42.686;23.364;2023-02-21T03:56:43;5.97;;;4.07;;
20611;SDS011;10465;42.686;23.364;2023-02-21T03:59:08;6.70;;;3.72;;
20611;SDS011;10465;42.686;23.364;2023-02-21T04:01:34;7.85;;;3.97;;
20611;SDS011;10465;42.686;23.364;2023-02-21T04:03:59;7.13;;;4.07;;
20611;SDS011;10465;42.686;23.364;2023-02-21T04:06:25;6.40;;;4.32;;
20611;SDS011;10465;42.686;23.364;2023-02-21T04:08:50;5.68;;;3.90;;
20611;SDS011;10465;42.686;23.364;2023-02-21T04:11:17;6.35;;;3.63;;
20611;SDS011;10465;42.686;23.364;2023-02-21T04:13:44;5.88;;;3.90;;
20611;SDS011;10465;42.686;23.364;2023-02-21T04:16:10;7.68;;;3.78;;
20611;SDS011;10465;42.686;23.364;2023-02-21T04:18:35;7.45;;;4.15;;
20611;SDS011;10465;42.686;23.364;2023-02-21T04:21:00;5.35;;;3.38;;
20611;SDS011;10465;42.686;23.364;2023-02-21T04:23:26;7.05;;;3.72;;
20611;SDS011;10465;42.686;23.364;2023-02-21T04:25:51;8.35;;;3.88;;
20611;SDS011;10465;42.686;23.364;2023-02-21T04:28:17;7.30;;;3.60;;
20611;SDS011;10465;42.686;23.364;2023-02-21T04:30:42;5.93;;;3.90;;
20611;SDS011;10465;42.686;23.364;2023-02-21T04:33:08;10.55;;;3.95;;
20611;SDS011;10465;42.686;23.364;2023-02-21T04:35:33;7.75;;;3.83;;
20611;SDS011;10465;42.686;23.364;2023-02-21T04:37:58;5.28;;;3.13;;
20611;SDS011;10465;42.686;23.364;2023-02-21T04:40:24;5.55;;;3.10;;
20611;SDS011;10465;42.686;23.364;2023-02-21T04:42:49;4.43;;;2.47;;
20611;SDS011;10465;42.686;23.364;2023-02-21T04:45:15;4.80;;;2.70;;
20611;SDS011;10465;42.686;23.364;2023-02-21T04:47:40;3.60;;;2.65;;
20611;SDS011;10465;42.686;23.364;2023-02-21T04:50:06;5.97;;;2.80;;
20611;SDS011;10465;42.686;23.364;2023-02-21T04:52:31;4.88;;;2.33;;
20611;SDS011;10465;42.686;23.364;2023-02-21T04:54:57;6.47;;;3.08;;
20611;SDS011;10465;42.686;23.364;2023-02-21T04:57:22;4.47;;;2.58;;
20611;SDS011;10465;42.686;23.364;2023-02-21T04:59:48;3.40;;;2.30;;
20611;SDS011;10465;42.686;23.364;2023-02-21T05:02:19;5.30;;;3.28;;
20611;SDS011;10465;42.686;23.364;2023-02-21T05:04:45;6.63;;;3.13;;
20611;SDS011;10465;42.686;23.364;2023-02-21T05:07:10;8.50;;;4.03;;
20611;SDS011;10465;42.686;23.364;2023-02-21T05:09:36;6.20;;;3.78;;
20611;SDS011;10465;42.686;23.364;2023-02-21T05:12:01;6.88;;;4.05;;
20611;SDS011;10465;42.686;23.364;2023-02-21T05:14:27;6.45;;;4.38;;
20611;SDS011;10465;42.686;23.364;2023-02-21T05:16:52;6.32;;;3.95;;
20611;SDS011;10465;42.686;23.364;2023-02-21T05:19:19;8.07;;;4.80;;
20611;SDS011;10465;42.686;23.364;2023-02-21T05:21:51;9.68;;;5.25;;
20611;SDS011;10465;42.686;23.364;2023-02-21T05:24:21;10.02;;;4.82;;
20611;SDS011;10465;42.686;23.364;2023-02-21T05:26:47;7.38;;;4.40;;
20611;SDS011;10465;42.686;23.364;2023-02-21T05:29:13;13.25;;;5.78;;
20611;SDS011;10465;42.686;23.364;2023-02-21T05:31:39;13.13;;;6.43;;
20611;SDS011;10465;42.686;23.364;2023-02-21T05:34:04;8.07;;;5.13;;
20611;SDS011;10465;42.686;23.364;2023-02-21T05:36:30;8.68;;;4.80;;
20611;SDS011;10465;42.686;23.364;2023-02-21T05:38:55;15.35;;;5.32;;
20611;SDS011;10465;42.686;23.364;2023-02-21T05:41:21;12.10;;;6.97;;
20611;SDS011;10465;42.686;23.364;2023-02-21T05:43:47;10.15;;;6.50;;
20611;SDS011;10465;42.686;23.364;2023-02-21T05:46:17;9.40;;;5.78;;
20611;SDS011;10465;42.686;23.364;2023-02-21T05:48:44;9.57;;;5.93;;
20611;SDS011;10465;42.686;23.364;2023-02-21T05:51:10;12.02;;;6.20;;
20611;SDS011;10465;42.686;23.364;2023-02-21T05:53:36;12.80;;;5.43;;
20611;SDS011;10465;42.686;23.364;2023-02-21T05:56:01;11.00;;;5.28;;
20611;SDS011;10465;42.686;23.364;2023-02-21T05:58:27;9.23;;;4.80;;
20611;SDS011;10465;42.686;23.364;2023-02-21T06:00:52;10.85;;;5.80;;
20611;SDS011;10465;42.686;23.364;2023-02-21T06:03:18;10.93;;;5.50;;
20611;SDS011;10465;42.686;23.364;2023-02-21T06:05:43;8.63;;;5.57;;
20611;SDS011;10465;42.686;23.364;2023-02-21T06:08:09;10.65;;;5.20;;
20611;SDS011;10465;42.686;23.364;2023-02-21T06:10:35;11.52;;;7.45;;
20611;SDS011;10465;42.686;23.364;2023-02-21T06:13:00;8.38;;;5.97;;
20611;SDS011;10465;42.686;23.364;2023-02-21T06:15:26;13.77;;;7.22;;
20611;SDS011;10465;42.686;23.364;2023-02-21T06:17:52;12.25;;;6.75;;
20611;SDS011;10465;42.686;23.364;2023-02-21T06:20:17;10.15;;;5.63;;
20611;SDS011;10465;42.686;23.364;2023-02-21T06:22:43;10.23;;;4.97;;
20611;SDS011;10465;42.686;23.364;2023-02-21T06:25:09;8.35;;;5.22;;
20611;SDS011;10465;42.686;23.364;2023-02-21T06:27:34;14.45;;;6.25;;
20611;SDS011;10465;42.686;23.364;2023-02-21T06:30:00;9.35;;;5.28;;
20611;SDS011;10465;42.686;23.364;2023-02-21T06:32:26;9.10;;;5.35;;
20611;SDS011;10465;42.686;23.364;2023-02-21T06:34:52;9.88;;;5.65;;
20611;SDS011;10465;42.686;23.364;2023-02-21T06:37:18;12.45;;;4.63;;
20611;SDS011;10465;42.686;23.364;2023-02-21T06:39:43;9.43;;;4.95;;
20611;SDS011;10465;42.686;23.364;2023-02-21T06:42:12;6.70;;;4.65;;
20611;SDS011;10465;42.686;23.364;2023-02-21T06:44:41;8.35;;;5.18;;
20611;SDS011;10465;42.686;23.364;2023-02-21T06:47:13;8.43;;;4.88;;
20611;SDS011;10465;42.686;23.364;2023-02-21T06:49:38;8.88;;;5.13;;
20611;SDS011;10465;42.686;23.364;2023-02-21T06:52:04;8.77;;;3.90;;
20611;SDS011;10465;42.686;23.364;2023-02-21T06:54:30;8.18;;;4.78;;
20611;SDS011;10465;42.686;23.364;2023-02-21T06:56:56;7.20;;;3.83;;
20611;SDS011;10465;42.686;23.364;2023-02-21T06:59:21;7.07;;;4.22;;
20611;SDS011;10465;42.686;23.364;2023-02-21T07:01:47;8.43;;;4.40;;
20611;SDS011;10465;42.686;23.364;2023-02-21T07:04:12;5.97;;;3.88;;
20611;SDS011;10465;42.686;23.364;2023-02-21T07:06:38;10.45;;;4.35;;
20611;SDS011;10465;42.686;23.364;2023-02-21T07:09:03;10.75;;;4.90;;
20611;SDS011;10465;42.686;23.364;2023-02-21T07:11:30;11.77;;;5.00;;
20611;SDS011;10465;42.686;23.364;2023-02-21T07:13:57;11.07;;;5.28;;
20611;SDS011;10465;42.686;23.364;2023-02-21T07:16:23;13.50;;;5.82;;
20611;SDS011;10465;42.686;23.364;2023-02-21T07:18:51;11.73;;;6.70;;
20611;SDS011;10465;42.686;23.364;2023-02-21T07:21:17;12.90;;;4.78;;
20611;SDS011;10465;42.686;23.364;2023-02-21T07:23:44;11.07;;;5.10;;
20611;SDS011;10465;42.686;23.364;2023-02-21T07:26:11;11.27;;;5.18;;
20611;SDS011;10465;42.686;23.364;2023-02-21T07:28:37;11.27;;;6.18;;
20611;SDS011;10465;42.686;23.364;2023-02-21T07:31:04;15.48;;;6.00;;
20611;SDS011;10465;42.686;23.364;2023-02-21T07:33:29;11.15;;;6.10;;
20611;SDS011;10465;42.686;23.364;2023-02-21T07:35:55;11.90;;;6.25;;
20611;SDS011;10465;42.686;23.364;2023-02-21T07:38:24;11.65;;;5.35;;
20611;SDS011;10465;42.686;23.364;2023-02-21T07:40:54;13.13;;;6.07;;
20611;SDS011;10465;42.686;23.364;2023-02-21T07:43:20;12.02;;;6.40;;
20611;SDS011;10465;42.686;23.364;2023-02-21T07:45:46;11.38;;;5.28;;
20611;SDS011;10465;42.686;23.364;2023-02-21T07:48:11;8.60;;;5.50;;
20611;SDS011;10465;42.686;23.364;2023-02-21T07:50:40;12.85;;;5.57;;
20611;SDS011;10465;42.686;23.364;2023-02-21T07:53:06;11.20;;;5.40;;
20611;SDS011;10465;42.686;23.364;2023-02-21T07:55:32;13.13;;;5.07;;
20611;SDS011;10465;42.686;23.364;2023-02-21T07:57:57;9.23;;;4.75;;
20611;SDS011;10465;42.686;23.364;2023-02-21T08:00:23;12.88;;;5.28;;
20611;SDS011;10465;42.686;23.364;2023-02-21T08:02:49;11.02;;;4.53;;
20611;SDS011;10465;42.686;23.364;2023-02-21T08:05:16;10.15;;;5.30;;
20611;SDS011;10465;42.686;23.364;2023-02-21T08:07:42;12.75;;;5.15;;
20611;SDS011;10465;42.686;23.364;2023-02-21T08:10:09;10.27;;;4.93;;
20611;SDS011;10465;42.686;23.364;2023-02-21T08:12:34;11.20;;;4.53;;
20611;SDS011;10465;42.686;23.364;2023-02-21T08:15:00;10.48;;;4.68;;
20611;SDS011;10465;42.686;23.364;2023-02-21T08:17:25;8.38;;;4.63;;
20611;SDS011;10465;42.686;23.364;2023-02-21T08:19:51;8.98;;;4.57;;
20611;SDS011;10465;42.686;23.364;2023-02-21T08:22:17;8.25;;;4.30;;
20611;SDS011;10465;42.686;23.364;2023-02-21T08:24:42;10.45;;;5.18;;
20611;SDS011;10465;42.686;23.364;2023-02-21T08:27:08;10.40;;;4.60;;
20611;SDS011;10465;42.686;23.364;2023-02-21T08:29:33;10.90;;;4.07;;
20611;SDS011;10465;42.686;23.364;2023-02-21T08:31:59;10.43;;;4.75;;
20611;SDS011;10465;42.686;23.364;2023-02-21T08:34:25;9.75;;;4.60;;
20611;SDS011;10465;42.686;23.364;2023-02-21T08:36:53;12.52;;;5.35;;
20611;SDS011;10465;42.686;23.364;2023-02-21T08:39:19;8.07;;;4.95;;
20611;SDS011;10465;42.686;23.364;2023-02-21T08:41:45;11.60;;;5.28;;
20611;SDS011;10465;42.686;23.364;2023-02-21T08:44:13;7.53;;;4.95;;
20611;SDS011;10465;42.686;23.364;2023-02-21T08:46:45;12.88;;;4.95;;
20611;SDS011;10465;42.686;23.364;2023-02-21T08:49:11;7.50;;;4.57;;
20611;SDS011;10465;42.686;23.364;2023-02-21T08:51:36;8.32;;;4.32;;
20611;SDS011;10465;42.686;23.364;2023-02-21T08:54:02;9.05;;;5.18;;
20611;SDS011;10465;42.686;23.364;2023-02-21T08:56:28;15.30;;;6.90;;
20611;SDS011;10465;42.686;23.364;2023-02-21T08:58:54;14.27;;;6.97;;
20611;SDS011;10465;42.686;23.364;2023-02-21T09:01:21;16.13;;;5.55;;
20611;SDS011;10465;42.686;23.364;2023-02-21T09:03:47;9.95;;;5.95;;
20611;SDS011;10465;42.686;23.364;2023-02-21T09:06:13;13.40;;;6.78;;
20611;SDS011;10465;42.686;23.364;2023-02-21T09:08:39;11.48;;;6.10;;
20611;SDS011;10465;42.686;23.364;2023-02-21T09:11:07;6.53;;;4.50;;
20611;SDS011;10465;42.686;23.364;2023-02-21T09:13:33;9.73;;;4.65;;
20611;SDS011;10465;42.686;23.364;2023-02-21T09:15:59;12.52;;;4.35;;
20611;SDS011;10465;42.686;23.364;2023-02-21T09:18:27;7.35;;;4.43;;
20611;SDS011;10465;42.686;23.364;2023-02-21T09:20:53;12.68;;;4.40;;
20611;SDS011;10465;42.686;23.364;2023-02-21T09:23:21;8.73;;;4.03;;
20611;SDS011;10465;42.686;23.364;2023-02-21T09:25:48;9.77;;;4.85;;
20611;SDS011;10465;42.686;23.364;2023-02-21T09:28:14;11.25;;;4.45;;
20611;SDS011;10465;42.686;23.364;2023-02-21T09:30:40;10.25;;;4.43;;
20611;SDS011;10465;42.686;23.364;2023-02-21T09:33:05;12.10;;;4.72;;
20611;SDS011;10465;42.686;23.364;2023-02-21T09:35:31;12.02;;;6.07;;
20611;SDS011;10465;42.686;23.364;2023-02-21T09:37:57;17.00;;;6.72;;
20611;SDS011;10465;42.686;23.364;2023-02-21T09:40:31;16.65;;;5.82;;
20611;SDS011;10465;42.686;23.364;2023-02-21T09:43:11;11.85;;;6.00;;
20611;SDS011;10465;42.686;23.364;2023-02-21T09:45:39;12.30;;;5.75;;
20611;SDS011;10465;42.686;23.364;2023-02-21T09:48:08;16.63;;;6.93;;
20611;SDS011;10465;42.686;23.364;2023-02-21T09:50:43;11.68;;;6.60;;
20611;SDS011;10465;42.686;23.364;2023-02-21T09:53:15;12.02;;;5.80;;
20611;SDS011;10465;42.686;23.364;2023-02-21T09:55:45;13.43;;;6.32;;
20611;SDS011;10465;42.686;23.364;2023-02-21T09:58:16;14.30;;;5.75;;
20611;SDS011;10465;42.686;23.364;2023-02-21T10:00:43;11.18;;;5.68;;
20611;SDS011;10465;42.686;23.364;2023-02-21T10:09:05;8.18;;;5.40;;
20611;SDS011;10465;42.686;23.364;2023-02-21T10:17:39;9.43;;;5.55;;
20611;SDS011;10465;42.686;23.364;2023-02-21T10:20:12;14.68;;;6.10;;
20611;SDS011;10465;42.686;23.364;2023-02-21T10:22:49;11.82;;;5.65;;
20611;SDS011;10465;42.686;23.364;2023-02-21T10:25:24;11.30;;;5.28;;
20611;SDS011;10465;42.686;23.364;2023-02-21T10:27:53;12.00;;;5.53;;
20611;SDS011;10465;42.686;23.364;2023-02-21T10:30:23;11.13;;;5.07;;
20611;SDS011;10465;42.686;23.364;2023-02-21T10:32:53;11.95;;;5.85;;
20611;SDS011;10465;42.686;23.364;2023-02-21T10:35:19;13.48;;;6.07;;
20611;SDS011;10465;42.686;23.364;2023-02-21T10:37:55;11.80;;;5.75;;
20611;SDS011;10465;42.686;23.364;2023-02-21T10:40:26;14.65;;;5.75;;
20611;SDS011;10465;42.686;23.364;2023-02-21T10:42:58;13.23;;;5.65;;
20611;SDS011;10465;42.686;23.364;2023-02-21T10:45:32;13.73;;;5.07;;
20611;SDS011;10465;42.686;23.364;2023-02-21T10:48:02;9.98;;;4.70;;
20611;SDS011;10465;42.686;23.364;2023-02-21T10:53:03;14.27;;;5.28;;
20611;SDS011;10465;42.686;23.364;2023-02-21T10:55:30;7.68;;;3.40;;
20611;SDS011;10465;42.686;23.364;2023-02-21T10:57:56;4.65;;;2.63;;
20611;SDS011;10465;42.686;23.364;2023-02-21T11:00:27;5.38;;;1.70;;
20611;SDS011;10465;42.686;23.364;2023-02-21T11:02:55;3.25;;;1.63;;
20611;SDS011;10465;42.686;23.364;2023-02-21T11:05:26;2.38;;;1.60;;
20611;SDS011;10465;42.686;23.364;2023-02-21T11:10:28;2.53;;;1.63;;
20611;SDS011;10465;42.686;23.364;2023-02-21T11:13:05;2.50;;;1.60;;
20611;SDS011;10465;42.686;23.364;2023-02-21T11:15:42;2.67;;;1.80;;
20611;SDS011;10465;42.686;23.364;2023-02-21T11:18:21;3.33;;;1.40;;
20611;SDS011;10465;42.686;23.364;2023-02-21T11:20:49;3.33;;;1.38;;
20611;SDS011;10465;42.686;23.364;2023-02-21T11:23:24;2.85;;;1.58;;
20611;SDS011;10465;42.686;23.364;2023-02-21T11:26:05;2.65;;;1.40;;
20611;SDS011;10465;42.686;23.364;2023-02-21T11:28:37;1.88;;;1.33;;
20611;SDS011;10465;42.686;23.364;2023-02-21T11:31:05;3.03;;;1.40;;
20611;SDS011;10465;42.686;23.364;2023-02-21T11:33:41;3.22;;;1.30;;
20611;SDS011;10465;42.686;23.364;2023-02-21T11:36:35;1.90;;;1.38;;
20611;SDS011;10465;42.686;23.364;2023-02-21T11:55:18;3.05;;;1.88;;
20611;SDS011;10465;42.686;23.364;2023-02-21T12:06:10;1.58;;;1.40;;
20611;SDS011;10465;42.686;23.364;2023-02-21T12:14:37;1.40;;;1.30;;
20611;SDS011;10465;42.686;23.364;2023-02-21T12:20:02;2.42;;;1.35;;
20611;SDS011;10465;42.686;23.364;2023-02-21T12:25:28;3.15;;;1.38;;
20611;SDS011;10465;42.686;23.364;2023-02-21T12:41:46;2.78;;;1.63;;
20611;SDS011;10465;42.686;23.364;2023-02-21T12:44:32;2.40;;;1.38;;
20611;SDS011;10465;42.686;23.364;2023-02-21T12:47:06;1.75;;;1.17;;
20611;SDS011;10465;42.686;23.364;2023-02-21T12:49:56;2.92;;;1.52;;
20611;SDS011;10465;42.686;23.364;2023-02-21T12:52:29;1.50;;;1.33;;
20611;SDS011;10465;42.686;23.364;2023-02-21T13:00:20;1.48;;;1.33;;
20611;SDS011;10465;42.686;23.364;2023-02-21T13:02:52;2.10;;;1.42;;
20611;SDS011;10465;42.686;23.364;2023-02-21T13:05:47;3.92;;;1.50;;
20611;SDS011;10465;42.686;23.364;2023-02-21T13:08:46;4.22;;;1.70;;
20611;SDS011;10465;42.686;23.364;2023-02-21T13:11:28;4.07;;;1.70;;
20611;SDS011;10465;42.686;23.364;2023-02-21T13:14:01;4.07;;;1.80;;
20611;SDS011;10465;42.686;23.364;2023-02-21T13:16:31;2.88;;;1.30;;
20611;SDS011;10465;42.686;23.364;2023-02-21T13:19:01;4.50;;;1.75;;
20611;SDS011;10465;42.686;23.364;2023-02-21T13:24:37;2.88;;;1.75;;
20611;SDS011;10465;42.686;23.364;2023-02-21T13:32:37;2.47;;;1.67;;
20611;SDS011;10465;42.686;23.364;2023-02-21T13:35:05;2.17;;;1.55;;
20611;SDS011;10465;42.686;23.364;2023-02-21T13:37:34;3.33;;;1.60;;
20611;SDS011;10465;42.686;23.364;2023-02-21T13:42:44;6.05;;;2.38;;
20611;SDS011;10465;42.686;23.364;2023-02-21T13:45:27;2.47;;;1.48;;
20611;SDS011;10465;42.686;23.364;2023-02-21T13:55:36;3.08;;;1.60;;
20611;SDS011;10465;42.686;23.364;2023-02-21T14:02:58;2.60;;;1.58;;
20611;SDS011;10465;42.686;23.364;2023-02-21T14:08:39;5.40;;;2.35;;
20611;SDS011;10465;42.686;23.364;2023-02-21T14:31:54;2.80;;;2.20;;
20611;SDS011;10465;42.686;23.364;2023-02-21T15:07:55;4.68;;;2.08;;
20611;SDS011;10465;42.686;23.364;2023-02-21T15:10:27;6.35;;;2.97;;
20611;SDS011;10465;42.686;23.364;2023-02-21T15:12:59;5.32;;;2.03;;
20611;SDS011;10465;42.686;23.364;2023-02-21T15:15:32;7.15;;;2.55;;
20611;SDS011;10465;42.686;23.364;2023-02-21T15:18:22;6.85;;;3.22;;
20611;SDS011;10465;42.686;23.364;2023-02-21T15:21:00;4.50;;;2.30;;
20611;SDS011;10465;42.686;23.364;2023-02-21T15:23:46;4.38;;;2.78;;
20611;SDS011;10465;42.686;23.364;2023-02-21T15:26:24;3.97;;;2.70;;
20611;SDS011;10465;42.686;23.364;2023-02-21T15:29:04;6.10;;;2.42;;
20611;SDS011;10465;42.686;23.364;2023-02-21T15:31:42;8.57;;;2.85;;
20611;SDS011;10465;42.686;23.364;2023-02-21T15:34:17;5.55;;;3.22;;
20611;SDS011;10465;42.686;23.364;2023-02-21T15:36:48;6.65;;;2.78;;
20611;SDS011;10465;42.686;23.364;2023-02-21T15:41:50;5.70;;;2.95;;
20611;SDS011;10465;42.686;23.364;2023-02-21T15:44:23;7.00;;;2.90;;
20611;SDS011;10465;42.686;23.364;2023-02-21T15:47:12;7.00;;;3.03;;
20611;SDS011;10465;42.686;23.364;2023-02-21T15:52:35;4.20;;;2.88;;
20611;SDS011;10465;42.686;23.364;2023-02-21T15:55:38;7.78;;;3.50;;
20611;SDS011;10465;42.686;23.364;2023-02-21T16:00:32;8.27;;;4.18;;
20611;SDS011;10465;42.686;23.364;2023-02-21T16:05:49;8.68;;;3.70;;
20611;SDS011;10465;42.686;23.364;2023-02-21T16:08:15;10.70;;;3.72;;
20611;SDS011;10465;42.686;23.364;2023-02-21T16:10:41;6.15;;;3.30;;
20611;SDS011;10465;42.686;23.364;2023-02-21T16:13:08;7.65;;;3.78;;
20611;SDS011;10465;42.686;23.364;2023-02-21T16:15:34;6.78;;;4.22;;
20611;SDS011;10465;42.686;23.364;2023-02-21T16:18:02;6.85;;;4.28;;
20611;SDS011;10465;42.686;23.364;2023-02-21T16:20:33;6.78;;;4.20;;
20611;SDS011;10465;42.686;23.364;2023-02-21T16:23:43;9.98;;;4.25;;
20611;SDS011;10465;42.686;23.364;2023-02-21T16:28:41;8.70;;;4.60;;
20611;SDS011;10465;42.686;23.364;2023-02-21T16:31:08;8.15;;;4.90;;
20611;SDS011;10465;42.686;23.364;2023-02-21T16:33:39;13.10;;;4.45;;
20611;SDS011;10465;42.686;23.364;2023-02-21T16:36:06;12.25;;;4.38;;
20611;SDS011;10465;42.686;23.364;2023-02-21T16:38:33;9.40;;;4.68;;
20611;SDS011;10465;42.686;23.364;2023-02-21T16:40:59;9.02;;;4.68;;
20611;SDS011;10465;42.686;23.364;2023-02-21T16:43:25;7.40;;;5.05;;
20611;SDS011;10465;42.686;23.364;2023-02-21T16:45:54;6.30;;;4.47;;
20611;SDS011;10465;42.686;23.364;2023-02-21T16:48:23;8.95;;;4.80;;
20611;SDS011;10465;42.686;23.364;2023-02-21T16:50:52;11.40;;;4.72;;
20611;SDS011;10465;42.686;23.364;2023-02-21T16:53:18;8.10;;;4.35;;
20611;SDS011;10465;42.686;23.364;2023-02-21T16:55:45;6.07;;;4.10;;
20611;SDS011;10465;42.686;23.364;2023-02-21T16:58:19;11.05;;;5.75;;
20611;SDS011;10465;42.686;23.364;2023-02-21T17:00:50;6.68;;;4.75;;
20611;SDS011;10465;42.686;23.364;2023-02-21T17:03:26;12.20;;;5.57;;
20611;SDS011;10465;42.686;23.364;2023-02-21T17:05:53;11.00;;;5.55;;
20611;SDS011;10465;42.686;23.364;2023-02-21T17:08:20;13.25;;;6.20;;
20611;SDS011;10465;42.686;23.364;2023-02-21T17:10:46;16.40;;;6.55;;
20611;SDS011;10465;42.686;23.364;2023-02-21T17:13:12;11.45;;;6.38;;
20611;SDS011;10465;42.686;23.364;2023-02-21T17:15:37;16.05;;;7.32;;
20611;SDS011;10465;42.686;23.364;2023-02-21T17:18:03;12.00;;;6.90;;
20611;SDS011;10465;42.686;23.364;2023-02-21T17:20:28;12.30;;;6.65;;
20611;SDS011;10465;42.686;23.364;2023-02-21T17:22:54;10.48;;;6.13;;
20611;SDS011;10465;42.686;23.364;2023-02-21T17:25:23;12.25;;;7.05;;
20611;SDS011;10465;42.686;23.364;2023-02-21T17:27:49;16.73;;;7.70;;
20611;SDS011;10465;42.686;23.364;2023-02-21T17:30:15;16.88;;;8.07;;
20611;SDS011;10465;42.686;23.364;2023-02-21T17:32:42;21.83;;;10.43;;
20611;SDS011;10465;42.686;23.364;2023-02-21T17:35:08;16.52;;;9.20;;
20611;SDS011;10465;42.686;23.364;2023-02-21T17:37:34;16.63;;;8.25;;
20611;SDS011;10465;42.686;23.364;2023-02-21T17:39:59;22.33;;;10.10;;
20611;SDS011;10465;42.686;23.364;2023-02-21T17:42:25;17.00;;;9.35;;
20611;SDS011;10465;42.686;23.364;2023-02-21T17:44:50;18.85;;;9.35;;
20611;SDS011;10465;42.686;23.364;2023-02-21T17:47:17;15.73;;;8.00;;
20611;SDS011;10465;42.686;23.364;2023-02-21T17:49:45;18.90;;;8.75;;
20611;SDS011;10465;42.686;23.364;2023-02-21T17:52:12;19.08;;;10.32;;
20611;SDS011;10465;42.686;23.364;2023-02-21T17:54:39;20.27;;;11.18;;
20611;SDS011;10465;42.686;23.364;2023-02-21T17:57:05;16.33;;;9.35;;
20611;SDS011;10465;42.686;23.364;2023-02-21T17:59:33;20.15;;;9.40;;
20611;SDS011;10465;42.686;23.364;2023-02-21T18:01:59;12.27;;;7.80;;
20611;SDS011;10465;42.686;23.364;2023-02-21T18:04:24;14.93;;;7.45;;
20611;SDS011;10465;42.686;23.364;2023-02-21T18:06:49;12.98;;;8.20;;
20611;SDS011;10465;42.686;23.364;2023-02-21T18:09:15;13.77;;;8.02;;
20611;SDS011;10465;42.686;23.364;2023-02-21T18:11:40;15.77;;;9.10;;
20611;SDS011;10465;42.686;23.364;2023-02-21T18:14:12;16.42;;;9.30;;
20611;SDS011;10465;42.686;23.364;2023-02-21T18:16:37;14.82;;;8.55;;
20611;SDS011;10465;42.686;23.364;2023-02-21T18:19:02;16.17;;;8.80;;
20611;SDS011;10465;42.686;23.364;2023-02-21T18:21:28;20.67;;;10.07;;
20611;SDS011;10465;42.686;23.364;2023-02-21T18:23:53;20.95;;;10.43;;